Time,TemperatureF,DewpointF,PressureIn,WindDirection,WindDirectionDegrees,WindSpeedMPH,WindSpeedGustMPH,Humidity,HourlyPrecipIn,Conditions,Clouds,dailyrainin,SolarRadiationWatts/m^2,SoftwareType,DateUTC
2013-08-27 00:43:00,82.0,75.0,-100.00,SW,220,6.0,9.0,80,0.00,,,0.00,0.000000,,2013-08-27 05:43:00,
2013-08-27 00:52:00,82.0,75.0,-100.00,SW,220,6.0,9.0,80,0.00,,,0.00,0.000000,,2013-08-27 05:52:00,
2013-08-27 01:02:00,82.0,75.0,-100.00,SW,220,6.0,9.0,80,0.00,,,0.00,0.000000,,2013-08-27 06:02:00,
2013-08-27 01:42:00,80.0,75.0,-100.00,South,186,4.0,8.0,84,0.00,,,0.00,0.000000,,2013-08-27 06:42:00,
2013-08-27 01:52:00,80.0,75.0,-100.00,South,186,4.0,8.0,84,0.00,,,0.00,0.000000,,2013-08-27 06:52:00,
2013-08-27 02:02:00,80.0,75.0,-100.00,South,186,4.0,8.0,84,0.00,,,0.00,0.000000,,2013-08-27 07:02:00,
2013-08-27 02:42:00,79.0,74.0,-100.00,SW,215,2.0,6.0,86,0.00,,,0.00,0.000000,,2013-08-27 07:42:00,
2013-08-27 02:52:00,79.0,74.0,-100.00,SW,215,2.0,6.0,86,0.00,,,0.00,0.000000,,2013-08-27 07:52:00,
2013-08-27 03:02:00,79.0,74.0,-100.00,SW,215,2.0,6.0,86,0.00,,,0.00,0.000000,,2013-08-27 08:02:00,
2013-08-27 03:42:00,77.0,72.0,-100.00,SW,221,3.0,6.0,85,0.00,,,0.00,0.000000,,2013-08-27 08:42:00,
2013-08-27 03:52:00,77.0,72.0,-100.00,SW,221,3.0,6.0,85,0.00,,,0.00,0.000000,,2013-08-27 08:52:00,
2013-08-27 04:01:00,77.0,72.0,-100.00,SW,221,3.0,6.0,85,0.00,,,0.00,0.000000,,2013-08-27 09:01:00,
2013-08-27 04:05:00,74.0,72.0,-100.00,East,94,1.0,3.0,95,0.00,,,0.00,0.000000,,2013-08-27 09:05:00,
2013-08-27 04:43:00,74.0,72.0,-100.00,East,94,1.0,3.0,95,0.00,,,0.00,0.000000,,2013-08-27 09:43:00,
2013-08-27 04:54:00,74.0,72.0,-100.00,East,94,1.0,3.0,95,0.00,,,0.00,0.000000,,2013-08-27 09:54:00,
2013-08-27 05:43:00,72.0,72.0,-100.00,SSE,151,3.0,4.0,99,0.00,,,0.00,0.000000,,2013-08-27 10:43:00,
2013-08-27 05:53:00,72.0,72.0,-100.00,SSE,151,3.0,4.0,99,0.00,,,0.00,0.000000,,2013-08-27 10:53:00,
2013-08-27 06:03:00,72.0,72.0,-100.00,SSE,151,3.0,4.0,99,0.00,,,0.00,0.000000,,2013-08-27 11:03:00,
2013-08-27 06:42:00,73.0,72.0,-100.00,SSE,164,2.0,4.0,98,0.00,,,0.00,0.000000,,2013-08-27 11:42:00,
2013-08-27 06:52:00,73.0,72.0,-100.00,SSE,164,2.0,4.0,98,0.00,,,0.00,0.000000,,2013-08-27 11:52:00,
2013-08-27 07:02:00,73.0,72.0,-100.00,SSE,164,2.0,4.0,98,0.00,,,0.00,0.000000,,2013-08-27 12:02:00,
2013-08-27 07:42:00,75.0,72.0,-100.00,SSW,192,3.0,7.0,89,0.00,,,0.00,8.000000,,2013-08-27 12:42:00,
2013-08-27 07:52:00,75.0,72.0,-100.00,SSW,192,3.0,7.0,89,0.00,,,0.00,8.000000,,2013-08-27 12:52:00,
2013-08-27 08:01:00,75.0,72.0,-100.00,SSW,192,3.0,7.0,89,0.00,,,0.00,8.000000,,2013-08-27 13:01:00,
2013-08-27 08:42:00,77.0,71.0,-100.00,South,187,3.0,5.0,83,0.00,,,0.00,57.000000,,2013-08-27 13:42:00,
2013-08-27 08:52:00,77.0,71.0,-100.00,South,187,3.0,5.0,83,0.00,,,0.00,57.000000,,2013-08-27 13:52:00,
2013-08-27 09:02:00,77.0,71.0,-100.00,South,187,3.0,5.0,83,0.00,,,0.00,57.000000,,2013-08-27 14:02:00,
2013-08-27 09:42:00,82.0,71.0,-100.00,SW,225,8.0,13.0,70,0.00,,,0.00,201.000000,,2013-08-27 14:42:00,
2013-08-27 09:53:00,82.0,71.0,-100.00,SW,225,8.0,13.0,70,0.00,,,0.00,201.000000,,2013-08-27 14:53:00,
2013-08-27 10:01:00,82.0,71.0,-100.00,SW,225,8.0,13.0,70,0.00,,,0.00,201.000000,,2013-08-27 15:01:00,
2013-08-27 10:05:00,85.0,70.0,-100.00,SW,226,12.0,17.0,61,0.00,,,0.00,417.000000,,2013-08-27 15:05:00,
2013-08-27 10:45:00,85.0,70.0,-100.00,SW,226,12.0,17.0,61,0.00,,,0.00,417.000000,,2013-08-27 15:45:00,
2013-08-27 10:58:00,85.0,70.0,-100.00,SW,226,12.0,17.0,61,0.00,,,0.00,417.000000,,2013-08-27 15:58:00,
2013-08-27 11:46:00,88.0,70.0,-100.00,SW,228,9.0,17.0,55,0.00,,,0.00,614.000000,,2013-08-27 16:46:00,
2013-08-27 11:55:00,88.0,70.0,-100.00,SW,228,9.0,17.0,55,0.00,,,0.00,614.000000,,2013-08-27 16:55:00,
2013-08-27 12:04:00,88.0,70.0,-100.00,SW,228,9.0,17.0,55,0.00,,,0.00,614.000000,,2013-08-27 17:04:00,
2013-08-27 12:43:00,90.0,70.0,-100.00,SW,233,8.0,18.0,52,0.00,,,0.00,716.000000,,2013-08-27 17:43:00,
2013-08-27 12:52:00,90.0,70.0,-100.00,SW,233,8.0,18.0,52,0.00,,,0.00,716.000000,,2013-08-27 17:52:00,
2013-08-27 13:02:00,90.0,70.0,-100.00,SW,233,8.0,18.0,52,0.00,,,0.00,716.000000,,2013-08-27 18:02:00,
2013-08-27 13:42:00,93.0,70.0,-100.00,SW,221,7.0,16.0,48,0.00,,,0.00,761.000000,,2013-08-27 18:42:00,
2013-08-27 13:53:00,93.0,70.0,-100.00,SW,221,7.0,16.0,48,0.00,,,0.00,761.000000,,2013-08-27 18:53:00,
2013-08-27 14:01:00,93.0,70.0,-100.00,SW,221,7.0,16.0,48,0.00,,,0.00,761.000000,,2013-08-27 19:01:00,
2013-08-27 14:42:00,95.0,71.0,-100.00,SW,230,7.0,15.0,46,0.00,,,0.00,757.000000,,2013-08-27 19:42:00,
2013-08-27 14:52:00,95.0,71.0,-100.00,SW,230,7.0,15.0,46,0.00,,,0.00,757.000000,,2013-08-27 19:52:00,
2013-08-27 15:02:00,95.0,71.0,-100.00,SW,230,7.0,15.0,46,0.00,,,0.00,757.000000,,2013-08-27 20:02:00,